Airfield :
LOGIN :

Register | Disclaimer

   EN    FR    IT 

 










Legend :    VFR   Marginal VFR   IFR   Intensive IFR   Very Intensive IFR
Visi :
Ceiling :
>= 8 km
>= 3000ft
5 to 8 km
1000 to 3000 ft
1500m to 5 km
500 to 1000 ft
800 to 1500m
200 to 500 ft
< 800m
< 200 ft
Symbols :   Thunderstorms  Fog  Heavy snow  Heavy precipitations  Wind > 20 kt
SIGMETs :     Misc.  Thunderstorms  Icing  Turbulence  Mountain Waves  Volcanic Ashes






- Airport Elevation : 1910 ft
- IATA code : RDZ


LFCR - Rodez

CURRENT METAR :
  • 100330Z AUTO 27009KT 9999 BKN010/// BKN016/// OVC025/// ///CB 11/10 Q1008 BECMG SCT013 BKN018

EXPIRED METARs :
  • 100300Z AUTO 27014KT 9999 VCTS BKN008/// OVC023/// ///CB 12/11 Q1008 BECMG NSW SCT013 BKN018
  • 100230Z AUTO 24010KT 6000 RA BKN006/// BKN018/// OVC026/// ///CB 13/13 Q1007 BECMG 30005KT NSW SCT013 BKN018
  • 100200Z AUTO 17013KT 9999 -RA SCT014/// BKN029/// BKN038/// ///CB 15/13 Q1007 TEMPO 4000 TSRA BECMG 30005KT SCT013 BKN018
  • 100130Z AUTO 17011KT 9999 BKN015/// BKN026/// OVC031/// ///CB 15/12 Q1007 TEMPO 4000 TSRA BECMG 30005KT SCT013 BKN018
  • 100100Z AUTO 16012KT 9999 SCT017/// BKN028/// BKN035/// ///TCU 15/12 Q1007 TEMPO VRB20G38KT 4000 TSRA SCT006 BKN014 BKN025CB

TAF AMD TAF LFCR
Valid from the 10 at 03:00 until the 11 at 00:00 UTC


100321Z 1003/1024 30010KT 9999 SCT013 BKN018
PROB40
TEMPO 1003/1004 VRB20G38KT 4000 TSRA SCT006 BKN014 BKN025CB
BECMG 1007/1009 BKN040
TEMPO 1012/1024 SCT060TCU
BECMG 1015/1017 09005KT
BECMG 1018/1019 VRB02KT



MET'MAP, your aeronautical weather chart ! - Copyright ORBIFLY December 2007 - Disclaimer

ORBIFLY MET'MAP TEAM :

Programming & Development : Alexandra Zaïnal
Concept & original design : Baudouin d'Aumeries
Assistance for programming : Marc-Olivier Méhu
Technical & hardware support : Manuel Goepfert

Contact : metmap@orbifly.com




SOURCES & CREDITS :

   NOAA